Time;durP1;ratioP1;P1;durP2;ratioP2;P2;SDS_P1;SDS_P2;PMS_P1;PMS_P2;Temp;Humidity;BMP_temperature;BMP_pressure;BME280_temperature;BME280_humidity;BME280_pressure;Samples;Min_cycle;Max_cycle;Signal;HPM_P1;HPM_P2
2022/08/12 00:42:50;;;;;;;5.70;2.50;;;14.60;62.00;;;;;;4131666;28;20559;-85
2022/08/12 00:44:51;;;;;;;3.65;2.75;;;14.60;62.10;;;;;;4139753;28;20050;-88
2022/08/12 00:46:59;;;;;;;4.60;2.42;;;14.60;62.30;;;;;;4123389;28;20150;-85
2022/08/12 00:49:01;;;;;;;4.93;2.60;;;14.50;62.50;;;;;;4141601;28;20065;-85
2022/08/12 00:51:03;;;;;;;4.13;2.80;;;14.50;62.40;;;;;;4138193;28;20033;-86
2022/08/12 00:53:06;;;;;;;2.90;2.30;;;14.50;62.60;;;;;;4143507;28;20034;-85
2022/08/12 00:55:07;;;;;;;4.07;2.67;;;14.50;62.70;;;;;;4141592;28;20061;-86
2022/08/12 00:57:12;;;;;;;4.75;2.55;;;14.50;62.70;;;;;;4137207;28;20284;-86
2022/08/12 00:59:12;;;;;;;7.65;3.15;;;14.50;62.80;;;;;;4114173;28;20026;-85
2022/08/12 01:01:15;;;;;;;6.10;3.17;;;14.50;62.90;;;;;;4122014;28;20030;-88
2022/08/12 01:03:19;;;;;;;5.28;2.58;;;14.40;63.00;;;;;;4130039;28;20037;-86
2022/08/12 01:12:26;;;;;;;4.20;2.47;;;14.40;63.20;;;;;;4137880;28;20049;-84
2022/08/12 01:14:27;;;;;;;8.98;3.08;;;14.40;63.20;;;;;;4124011;28;20032;-88
2022/08/12 01:16:28;;;;;;;6.10;2.90;;;14.30;63.30;;;;;;4135257;28;20030;-88
2022/08/12 01:18:31;;;;;;;4.70;2.83;;;14.30;63.30;;;;;;4142255;28;20026;-85
2022/08/12 01:20:50;;;;;;;11.25;3.08;;;14.30;63.40;;;;;;4139282;28;20258;-85
2022/08/12 01:23:14;;;;;;;5.13;2.95;;;14.30;63.80;;;;;;4138011;28;20093;-87
2022/08/12 01:25:17;;;;;;;8.02;2.40;;;14.20;63.70;;;;;;4124073;28;20081;-86
2022/08/12 01:27:20;;;;;;;4.43;2.90;;;14.20;63.40;;;;;;4139204;28;20088;-85
2022/08/12 01:29:27;;;;;;;5.90;3.10;;;14.20;63.40;;;;;;4138393;28;20280;-88
2022/08/12 01:31:29;;;;;;;6.93;2.83;;;14.20;63.60;;;;;;4137858;28;20030;-86
2022/08/12 01:33:39;;;;;;;6.68;3.17;;;14.20;63.50;;;;;;4138414;28;20117;-86
2022/08/12 01:35:43;;;;;;;6.63;3.00;;;14.10;63.70;;;;;;4137896;28;20077;-87
2022/08/12 01:37:58;;;;;;;4.78;2.90;;;14.10;63.80;;;;;;4136985;28;20116;-88
2022/08/12 01:40:00;;;;;;;9.13;2.83;;;14.10;64.00;;;;;;4137449;28;20036;-86
2022/08/12 01:42:04;;;;;;;9.80;2.90;;;14.10;63.90;;;;;;4120382;28;20042;-85
2022/08/12 01:44:05;;;;;;;5.03;3.10;;;14.00;63.90;;;;;;4133484;28;20389;-89
2022/08/12 01:46:18;;;;;;;4.68;2.83;;;14.10;64.00;;;;;;4158143;28;20033;-89
2022/08/12 01:48:33;;;;;;;8.77;2.90;;;14.00;63.90;;;;;;4153789;28;20398;-86
2022/08/12 01:50:53;;;;;;;9.75;2.95;;;14.00;64.00;;;;;;4144827;28;20032;-88
2022/08/12 01:53:05;;;;;;;5.13;2.58;;;14.00;63.90;;;;;;4137655;28;20029;-89
2022/08/12 01:55:06;;;;;;;3.30;2.33;;;13.90;63.70;;;;;;4140728;28;20021;-85
2022/08/12 01:57:23;;;;;;;3.75;2.33;;;13.90;63.90;;;;;;4148148;28;20049;-85
2022/08/12 02:00:00;;;;;;;5.15;2.40;;;13.90;64.00;;;;;;4124817;28;20023;-86
2022/08/12 02:02:05;;;;;;;7.20;2.85;;;13.90;64.40;;;;;;4139756;28;20545;-87
2022/08/12 02:12:39;;;;;;;5.88;2.95;;;13.80;64.40;;;;;;4123614;28;20041;-88
2022/08/12 02:14:55;;;;;;;6.38;3.33;;;13.80;63.90;;;;;;4140468;28;20033;-85
2022/08/12 02:17:20;;;;;;;5.65;3.22;;;13.70;63.70;;;;;;4140207;28;20038;-89
2022/08/12 02:19:39;;;;;;;4.78;3.15;;;13.70;64.10;;;;;;4124400;28;20540;-84
2022/08/12 02:21:45;;;;;;;7.10;3.50;;;13.70;63.80;;;;;;4138939;28;20026;-88
2022/08/12 02:23:48;;;;;;;8.13;4.38;;;13.70;63.90;;;;;;4140104;28;20514;-85
2022/08/12 02:25:53;;;;;;;10.75;6.00;;;13.60;64.00;;;;;;4122697;28;20026;-87
2022/08/12 02:27:55;;;;;;;115.43;9.75;;;13.60;64.20;;;;;;4121362;28;20046;-88
2022/08/12 02:29:57;;;;;;;34.53;8.23;;;13.60;64.80;;;;;;4139858;28;20116;-85
2022/08/12 02:31:58;;;;;;;12.70;7.65;;;13.60;65.30;;;;;;4139830;28;20056;-88
2022/08/12 02:34:00;;;;;;;12.10;7.32;;;13.60;65.80;;;;;;4140487;28;20022;-86
2022/08/12 02:36:01;;;;;;;11.98;7.45;;;13.60;66.10;;;;;;4135798;28;20871;-85
2022/08/12 02:38:09;;;;;;;11.65;7.07;;;13.50;66.30;;;;;;4133720;28;20028;-87
2022/08/12 02:40:11;;;;;;;15.35;7.72;;;13.50;66.60;;;;;;4137947;28;20041;-87
2022/08/12 02:42:15;;;;;;;12.50;7.35;;;13.50;66.70;;;;;;4138491;28;20042;-86
2022/08/12 02:44:19;;;;;;;15.02;7.28;;;13.50;66.80;;;;;;4121139;28;20534;-86
2022/08/12 02:46:29;;;;;;;16.58;8.38;;;13.50;66.80;;;;;;4138489;28;20029;-89
2022/08/12 02:48:38;;;;;;;16.73;8.10;;;13.50;66.90;;;;;;4141495;28;20025;-85
2022/08/12 02:50:45;;;;;;;13.70;7.93;;;13.50;66.80;;;;;;4137143;28;20029;-85
2022/08/12 02:52:46;;;;;;;11.82;6.63;;;13.40;66.90;;;;;;4137998;28;20103;-88
2022/08/12 02:54:52;;;;;;;13.85;8.32;;;13.40;67.00;;;;;;4124089;28;20109;-88
2022/08/12 02:56:53;;;;;;;12.10;7.35;;;13.40;67.10;;;;;;4139145;28;20535;-86
2022/08/12 02:58:56;;;;;;;14.50;8.10;;;13.40;67.10;;;;;;4135323;28;20093;-86
2022/08/12 03:01:03;;;;;;;14.73;8.85;;;13.40;67.30;;;;;;4122864;28;20030;-87
2022/08/12 03:03:07;;;;;;;17.83;9.25;;;13.40;67.30;;;;;;4108949;28;20026;-86
2022/08/12 03:05:10;;;;;;;16.90;10.07;;;13.40;67.40;;;;;;4133024;28;20029;-85
2022/08/12 03:07:35;;;;;;;18.15;10.50;;;13.40;67.40;;;;;;4120936;28;20054;-86
2022/08/12 03:09:48;;;;;;;19.30;9.88;;;13.40;67.60;;;;;;4120819;28;20050;-85
2022/08/12 03:11:48;;;;;;;15.77;9.70;;;13.40;67.50;;;;;;4121937;28;20045;-85
2022/08/12 03:13:59;;;;;;;23.02;9.93;;;13.40;67.60;;;;;;4140219;28;20570;-86
2022/08/12 03:16:00;;;;;;;18.38;10.77;;;13.40;67.80;;;;;;4141011;28;20061;-86
2022/08/12 03:18:16;;;;;;;20.73;11.25;;;13.40;67.60;;;;;;4141426;28;20180;-85
2022/08/12 03:20:22;;;;;;;21.30;11.90;;;13.30;67.60;;;;;;4140242;28;20040;-85
2022/08/12 03:22:24;;;;;;;18.25;11.48;;;13.30;67.60;;;;;;4138432;28;20022;-84
2022/08/12 03:24:30;;;;;;;18.35;13.00;;;13.30;67.60;;;;;;4124803;28;20053;-85
2022/08/12 03:26:34;;;;;;;25.67;12.98;;;13.30;68.50;;;;;;4124942;28;20107;-88
2022/08/12 03:28:53;;;;;;;19.15;11.77;;;13.30;67.90;;;;;;4142747;28;20033;-85
2022/08/12 03:30:57;;;;;;;18.75;11.95;;;13.30;67.90;;;;;;4139802;28;20053;-85
2022/08/12 03:33:00;;;;;;;18.95;12.30;;;13.30;67.90;;;;;;4145626;28;20041;-89
2022/08/12 03:35:06;;;;;;;22.77;12.40;;;13.30;68.00;;;;;;4149604;28;20030;-84
2022/08/12 03:37:09;;;;;;;19.27;11.30;;;13.20;68.00;;;;;;4142130;28;21255;-84
2022/08/12 03:41:35;;;;;;;15.48;10.27;;;13.30;68.40;;;;;;4145653;28;20136;-86
2022/08/12 04:00:20;;;;;;;18.40;12.00;;;13.10;68.30;;;;;;4146190;28;20491;-84
2022/08/12 04:02:23;;;;;;;15.70;9.77;;;13.10;68.40;;;;;;4145021;28;20061;-85
2022/08/12 04:04:32;;;;;;;14.30;9.55;;;13.10;68.50;;;;;;4140281;28;20419;-84
2022/08/12 04:06:39;;;;;;;12.45;8.68;;;13.10;68.70;;;;;;4125004;28;20101;-85
2022/08/12 04:08:40;;;;;;;12.57;9.00;;;13.10;68.70;;;;;;4125154;28;20178;-84
2022/08/12 04:13:17;;;;;;;17.00;8.50;;;13.10;68.90;;;;;;4144333;28;20375;-84
2022/08/12 04:15:18;;;;;;;10.75;6.55;;;13.10;69.00;;;;;;4145098;28;20773;-86
2022/08/12 04:17:20;;;;;;;12.40;7.90;;;13.10;69.00;;;;;;4110588;28;20395;-84
2022/08/12 04:19:23;;;;;;;16.33;8.55;;;13.10;69.10;;;;;;4143586;28;21501;-85
2022/08/12 04:21:24;;;;;;;11.80;8.30;;;13.00;69.20;;;;;;4143480;28;20037;-88
2022/08/12 04:23:26;;;;;;;13.25;7.80;;;13.10;69.50;;;;;;4123553;28;20244;-85
2022/08/12 04:25:28;;;;;;;14.50;7.68;;;13.10;69.60;;;;;;4140819;28;20109;-85
2022/08/12 04:27:30;;;;;;;11.10;7.70;;;13.10;69.70;;;;;;4129286;28;20026;-88
2022/08/12 04:29:31;;;;;;;12.55;7.45;;;13.10;69.80;;;;;;4127632;28;20300;-84
2022/08/12 04:31:39;;;;;;;15.50;8.40;;;13.10;69.80;;;;;;4132059;28;20062;-87
2022/08/12 04:33:42;;;;;;;17.35;9.60;;;13.10;69.90;;;;;;4128599;28;20050;-86
2022/08/12 04:35:43;;;;;;;21.02;9.20;;;13.10;70.00;;;;;;4147337;28;20048;-85
2022/08/12 04:37:45;;;;;;;18.15;10.43;;;13.10;70.10;;;;;;4129617;28;20030;-84
2022/08/12 04:39:47;;;;;;;20.40;10.40;;;13.10;70.20;;;;;;4142306;28;20046;-87
2022/08/12 04:41:51;;;;;;;17.95;9.75;;;13.10;70.40;;;;;;4131229;28;20030;-85
2022/08/12 04:43:52;;;;;;;13.82;8.35;;;13.10;70.50;;;;;;4129854;28;20045;-85
2022/08/12 04:45:56;;;;;;;11.02;7.43;;;13.10;70.90;;;;;;4128016;28;20023;-85
2022/08/12 04:47:57;;;;;;;8.23;5.72;;;13.20;71.20;;;;;;4114629;28;20497;-85
2022/08/12 04:49:58;;;;;;;7.47;5.38;;;13.20;71.40;;;;;;4143623;28;20037;-85
2022/08/12 04:51:59;;;;;;;8.57;5.45;;;13.20;71.70;;;;;;4142165;28;20030;-85
2022/08/12 04:54:04;;;;;;;6.30;5.10;;;13.30;72.40;;;;;;4127465;28;20065;-85
2022/08/12 04:56:05;;;;;;;8.20;5.88;;;13.30;73.30;;;;;;4125957;28;20566;-86
2022/08/12 04:58:07;;;;;;;10.88;5.25;;;13.40;73.80;;;;;;4138891;28;20574;-84
2022/08/12 05:00:12;;;;;;;9.35;4.93;;;13.50;74.50;;;;;;4144078;28;20078;-84
2022/08/12 05:02:16;;;;;;;6.43;4.40;;;13.60;75.00;;;;;;4143447;28;20732;-84
2022/08/12 05:04:20;;;;;;;6.88;4.05;;;13.60;75.20;;;;;;4141205;28;20059;-85
2022/08/12 05:06:22;;;;;;;7.13;3.88;;;13.80;75.60;;;;;;4125417;28;20034;-87
2022/08/12 05:08:24;;;;;;;6.03;4.13;;;13.90;75.70;;;;;;4142560;28;20492;-85
2022/08/12 05:10:25;;;;;;;12.48;4.40;;;13.90;75.70;;;;;;4126244;28;20045;-84
2022/08/12 05:12:46;;;;;;;7.85;4.60;;;14.10;75.80;;;;;;4127394;28;20527;-85
2022/08/12 05:14:49;;;;;;;9.93;4.53;;;14.20;75.60;;;;;;4127417;28;20058;-85
2022/08/12 05:16:50;;;;;;;10.65;4.82;;;14.30;75.40;;;;;;4140487;28;21372;-85
2022/08/12 05:18:50;;;;;;;6.53;4.63;;;14.50;75.30;;;;;;4127500;28;20041;-86
2022/08/12 05:20:51;;;;;;;6.45;4.38;;;14.60;75.00;;;;;;4123561;28;20046;-85
2022/08/12 05:23:21;;;;;;;7.75;5.07;;;14.70;75.00;;;;;;4144943;28;20030;-88
2022/08/12 05:25:21;;;;;;;14.45;5.45;;;14.80;75.20;;;;;;4145295;28;20036;-85
2022/08/12 05:27:22;;;;;;;9.60;5.20;;;14.90;75.00;;;;;;4144924;28;20049;-85
2022/08/12 05:29:23;;;;;;;8.98;5.38;;;15.10;75.10;;;;;;4143107;28;20034;-85
2022/08/12 05:31:24;;;;;;;10.68;5.40;;;15.20;75.10;;;;;;4144570;28;20097;-85
2022/08/12 05:33:30;;;;;;;9.30;5.30;;;15.30;75.10;;;;;;4142403;28;20062;-85
2022/08/12 05:35:38;;;;;;;8.15;4.65;;;15.40;75.20;;;;;;4144239;28;21119;-85
2022/08/12 05:37:39;;;;;;;7.63;5.05;;;15.60;75.30;;;;;;4139590;28;20099;-88
2022/08/12 05:39:40;;;;;;;8.15;4.53;;;15.70;75.30;;;;;;4125207;28;20136;-85
2022/08/12 05:41:43;;;;;;;8.73;4.50;;;15.80;75.40;;;;;;4142311;28;20030;-86
2022/08/12 05:43:50;;;;;;;10.10;3.53;;;15.90;75.50;;;;;;4141652;28;20062;-86
2022/08/12 05:45:51;;;;;;;8.63;4.28;;;16.10;75.90;;;;;;4127189;28;20031;-84
2022/08/12 05:47:51;;;;;;;6.85;4.38;;;16.20;76.20;;;;;;4121793;28;20562;-87
2022/08/12 05:49:52;;;;;;;7.40;3.90;;;16.30;76.30;;;;;;4137996;28;20029;-86
2022/08/12 05:52:38;;;;;;;6.10;3.42;;;16.40;76.60;;;;;;4297360;23;20058;-84
2022/08/12 05:54:43;;;;;;;7.57;3.63;;;16.60;77.60;;;;;;4100778;28;20030;-87
2022/08/12 05:56:52;;;;;;;10.60;4.28;;;16.70;77.30;;;;;;4130773;28;20023;-87
2022/08/12 05:58:54;;;;;;;9.45;3.65;;;16.80;78.20;;;;;;4117432;28;20030;-84
2022/08/12 06:00:56;;;;;;;7.03;3.05;;;17.00;78.60;;;;;;4103180;28;20046;-84
2022/08/12 06:03:00;;;;;;;5.05;3.30;;;17.10;78.90;;;;;;4105209;28;20030;-84
2022/08/12 06:05:01;;;;;;;8.32;3.88;;;17.20;79.20;;;;;;4097040;28;20037;-84
2022/08/12 06:07:06;;;;;;;6.63;3.03;;;17.30;79.40;;;;;;4094195;28;20518;-84
2022/08/12 06:09:10;;;;;;;4.43;2.97;;;17.50;79.40;;;;;;4095905;28;20030;-85
2022/08/12 06:11:11;;;;;;;4.43;2.95;;;17.60;79.50;;;;;;4108950;28;20161;-85
2022/08/12 06:13:13;;;;;;;5.20;3.10;;;17.80;79.40;;;;;;4088877;28;20035;-83
2022/08/12 06:15:18;;;;;;;5.30;2.67;;;17.90;79.60;;;;;;4080016;29;20113;-84
2022/08/12 06:17:20;;;;;;;8.00;2.78;;;18.00;79.60;;;;;;4094834;28;20037;-83
2022/08/12 06:19:20;;;;;;;8.95;2.58;;;18.10;79.60;;;;;;4088361;28;20086;-86
2022/08/12 06:21:22;;;;;;;3.60;2.45;;;18.20;79.80;;;;;;4085481;28;20619;-84
2022/08/12 06:23:28;;;;;;;6.45;2.20;;;18.30;79.90;;;;;;4093326;28;20451;-85
2022/08/12 06:25:29;;;;;;;5.00;2.47;;;18.50;79.20;;;;;;4075708;29;20028;-84
2022/08/12 06:27:30;;;;;;;5.05;2.60;;;18.50;79.10;;;;;;4093119;28;20398;-85
2022/08/12 06:29:33;;;;;;;5.13;2.22;;;18.70;79.30;;;;;;4093034;28;20031;-85
2022/08/12 06:31:34;;;;;;;5.03;2.38;;;18.80;78.80;;;;;;4108320;28;20031;-84
2022/08/12 06:33:35;;;;;;;4.68;2.30;;;18.90;78.40;;;;;;4089303;28;20757;-84
2022/08/12 06:35:37;;;;;;;3.70;2.55;;;19.00;78.10;;;;;;4087896;28;20086;-85
2022/08/12 06:37:41;;;;;;;4.83;2.10;;;19.10;77.90;;;;;;4070789;28;20050;-86
2022/08/12 06:39:42;;;;;;;4.57;2.10;;;19.20;77.30;;;;;;4084923;28;20035;-84
2022/08/12 06:44:02;;;;;;;10.52;2.30;;;19.40;76.50;;;;;;4087853;28;20024;-86
2022/08/12 06:46:03;;;;;;;3.72;2.00;;;19.50;76.00;;;;;;4088705;28;20027;-85
2022/08/12 06:48:08;;;;;;;9.32;2.25;;;19.50;75.60;;;;;;4086478;28;20134;-85
2022/08/12 06:50:12;;;;;;;5.97;2.10;;;19.60;76.00;;;;;;4090548;28;20107;-84
2022/08/12 06:52:13;;;;;;;5.15;2.50;;;19.70;74.80;;;;;;4086163;28;20041;-87
2022/08/12 06:54:14;;;;;;;3.55;1.92;;;19.70;74.40;;;;;;4089461;28;20125;-84
2022/08/12 06:56:15;;;;;;;3.78;1.98;;;19.90;74.10;;;;;;4088232;28;20057;-84
2022/08/12 06:58:16;;;;;;;5.35;1.75;;;19.90;73.60;;;;;;4074654;29;20023;-84
2022/08/12 07:00:24;;;;;;;5.18;2.20;;;20.00;73.50;;;;;;4090234;28;20035;-83
2022/08/12 07:02:26;;;;;;;7.70;1.70;;;20.10;73.10;;;;;;4089707;28;20035;-83
2022/08/12 07:04:31;;;;;;;9.27;2.15;;;20.20;72.60;;;;;;4087531;28;20109;-83
2022/08/12 07:06:32;;;;;;;5.72;1.98;;;20.20;72.40;;;;;;4086425;28;20027;-83
2022/08/12 07:08:36;;;;;;;2.80;1.75;;;20.30;71.40;;;;;;4084352;28;20574;-83
2022/08/12 07:10:44;;;;;;;3.75;1.70;;;20.40;70.90;;;;;;4087082;28;21889;-83
2022/08/12 07:12:44;;;;;;;5.15;1.45;;;20.50;70.30;;;;;;4087434;28;20032;-86
2022/08/12 07:14:50;;;;;;;2.65;1.48;;;20.50;70.30;;;;;;4075336;28;20032;-83
2022/08/12 07:16:55;;;;;;;3.05;1.52;;;20.60;69.90;;;;;;4090910;28;20038;-85
2022/08/12 07:18:57;;;;;;;2.22;1.60;;;20.70;69.60;;;;;;4086840;28;20036;-84
2022/08/12 07:21:03;;;;;;;4.60;1.90;;;20.70;68.10;;;;;;4076036;29;20110;-84
2022/08/12 07:23:04;;;;;;;3.70;1.52;;;20.70;67.20;;;;;;4084632;28;20159;-84
2022/08/12 07:27:27;;;;;;;3.35;1.48;;;20.90;66.20;;;;;;4089305;28;20090;-83
2022/08/12 07:29:28;;;;;;;2.10;1.13;;;20.90;65.80;;;;;;4073179;29;20032;-84
2022/08/12 07:31:29;;;;;;;2.63;1.38;;;21.00;65.20;;;;;;4087497;28;20035;-84
2022/08/12 07:33:31;;;;;;;3.33;1.30;;;21.00;64.60;;;;;;4088792;28;20625;-83
2022/08/12 07:35:33;;;;;;;2.47;1.10;;;21.10;62.90;;;;;;4088096;28;20033;-86
2022/08/12 07:38:02;;;;;;;2.75;1.30;;;21.10;61.90;;;;;;4087260;28;20046;-85
2022/08/12 07:40:03;;;;;;;3.58;1.20;;;21.00;59.30;;;;;;4086855;28;20079;-86
2022/08/12 07:42:04;;;;;;;9.73;1.38;;;21.20;59.60;;;;;;4086038;28;20038;-86
2022/08/12 07:44:07;;;;;;;3.50;1.45;;;21.20;57.80;;;;;;4102198;28;20542;-84
2022/08/12 07:46:37;;;;;;;2.45;1.25;;;21.30;56.80;;;;;;4089728;28;20047;-84
2022/08/12 07:49:01;;;;;;;2.72;1.17;;;21.30;56.70;;;;;;4060833;28;20028;-86
2022/08/12 07:51:01;;;;;;;;;;;21.30;56.40;;;;;;4090408;28;20035;-86
2022/08/12 07:53:02;;;;;;;3.88;0.95;;;21.50;56.20;;;;;;4083954;28;20045;-84
2022/08/12 07:55:29;;;;;;;4.80;1.13;;;21.50;56.30;;;;;;4085734;28;20047;-86
2022/08/12 07:57:54;;;;;;;2.33;1.35;;;21.60;54.90;;;;;;4082367;28;20039;-87
2022/08/12 08:01:03;;;;;;;4.00;1.48;;;21.70;54.60;;;;;;4090334;28;20889;-83
2022/08/12 08:06:15;;;;;;;2.30;1.08;;;21.70;52.10;;;;;;3997447;29;20129;-84
2022/08/12 08:08:20;;;;;;;;;;;21.90;51.80;;;;;;4020333;29;20081;-85
2022/08/12 08:10:25;;;;;;;1.27;1.00;;;22.00;49.90;;;;;;4074197;29;19914;-85
2022/08/12 08:14:54;;;;;;;1.67;1.02;;;22.10;47.90;;;;;;4088828;28;20526;-85
2022/08/12 08:16:57;;;;;;;3.20;1.27;;;22.10;48.00;;;;;;4103780;28;20031;-86
2022/08/12 08:18:58;;;;;;;5.93;1.33;;;22.20;49.20;;;;;;4084006;28;20067;-84
2022/08/12 08:21:02;;;;;;;;;;;22.30;50.10;;;;;;4091179;28;20931;-84
2022/08/12 08:23:10;;;;;;;6.25;1.40;;;22.30;48.10;;;;;;4082661;28;19906;-86
2022/08/12 08:25:12;;;;;;;2.80;1.10;;;22.40;47.30;;;;;;4083679;28;20124;-85
2022/08/12 08:27:24;;;;;;;2.10;1.08;;;22.50;48.10;;;;;;4084734;28;20125;-85
2022/08/12 08:29:25;;;;;;;5.80;1.20;;;22.60;46.50;;;;;;4072605;29;20038;-83
2022/08/12 08:31:29;;;;;;;3.10;1.35;;;22.60;47.50;;;;;;4085608;28;20404;-84
2022/08/12 08:33:31;;;;;;;4.07;1.00;;;22.70;46.40;;;;;;4089640;28;20036;-87
2022/08/12 08:35:32;;;;;;;1.90;1.15;;;22.70;47.00;;;;;;4072128;29;20035;-83
2022/08/12 08:37:33;;;;;;;2.45;1.17;;;22.70;46.40;;;;;;4088795;28;20023;-86
2022/08/12 08:39:34;;;;;;;3.42;1.23;;;22.80;45.50;;;;;;4086244;28;20531;-85
2022/08/12 08:43:57;;;;;;;4.60;0.93;;;22.90;43.90;;;;;;4102122;28;20034;-85
2022/08/12 08:46:04;;;;;;;3.85;1.10;;;23.00;44.30;;;;;;4089190;28;20024;-85
2022/08/12 08:48:11;;;;;;;3.78;1.30;;;23.00;44.50;;;;;;4073619;29;20122;-85
2022/08/12 08:50:18;;;;;;;5.00;1.77;;;23.10;42.60;;;;;;4086330;28;20059;-85
2022/08/12 08:52:24;;;;;;;2.80;1.05;;;23.10;42.30;;;;;;4091572;28;20086;-84
2022/08/12 08:54:24;;;;;;;1.17;0.93;;;23.20;43.10;;;;;;4084714;28;20036;-85
2022/08/12 08:56:48;;;;;;;2.95;1.20;;;23.20;43.10;;;;;;4087547;28;20031;-85
2022/08/12 08:58:56;;;;;;;5.32;0.93;;;23.20;43.20;;;;;;4101240;28;20042;-83
2022/08/12 09:00:58;;;;;;;4.50;1.05;;;23.30;43.30;;;;;;4073075;29;20066;-84
2022/08/12 09:03:04;;;;;;;4.00;1.13;;;23.40;42.60;;;;;;4091366;28;20026;-87
2022/08/12 09:05:05;;;;;;;3.17;1.13;;;23.40;42.30;;;;;;4092492;28;20338;-87
2022/08/12 09:07:06;;;;;;;1.42;0.90;;;23.40;39.90;;;;;;4085048;28;20120;-84
2022/08/12 09:09:08;;;;;;;5.80;1.23;;;23.50;40.80;;;;;;4086457;28;20586;-85
2022/08/12 09:13:33;;;;;;;4.53;1.23;;;23.60;43.20;;;;;;4091135;28;20807;-87
2022/08/12 09:15:35;;;;;;;3.30;1.20;;;23.60;44.20;;;;;;4089477;28;20039;-85
2022/08/12 09:17:37;;;;;;;4.00;1.05;;;23.60;44.50;;;;;;4088333;28;20035;-84
2022/08/12 09:19:38;;;;;;;4.10;1.08;;;23.60;44.90;;;;;;4077832;29;20035;-85
2022/08/12 09:21:42;;;;;;;1.92;1.00;;;23.60;44.80;;;;;;4089735;28;20542;-86
2022/08/12 09:23:43;;;;;;;3.47;1.10;;;23.60;44.10;;;;;;4089515;28;20027;-84
2022/08/12 09:25:47;;;;;;;4.32;1.08;;;23.60;44.20;;;;;;4103864;28;20027;-85
2022/08/12 09:28:50;;;;;;;;;;;;;;;;;;;;;
2022/08/12 09:31:22;;;;;;;3.67;1.10;;;23.60;45.80;;;;;;4057518;28;20134;-85
2022/08/12 09:33:50;;;;;;;2.50;0.93;;;23.60;47.30;;;;;;4087380;28;20062;-86
2022/08/12 09:35:51;;;;;;;5.38;1.35;;;23.60;47.80;;;;;;4089164;28;20594;-85
2022/08/12 09:37:54;;;;;;;6.45;1.48;;;23.60;47.80;;;;;;4088014;28;20043;-86
2022/08/12 09:39:55;;;;;;;5.60;1.70;;;23.60;48.20;;;;;;4090487;28;20047;-87
2022/08/12 09:46:44;;;;;;;1.83;1.00;;;23.60;48.50;;;;;;4088422;28;20055;-85
2022/08/12 09:48:48;;;;;;;2.33;1.10;;;23.60;48.70;;;;;;4090262;28;20023;-86
2022/08/12 09:50:52;;;;;;;2.75;0.88;;;23.60;49.10;;;;;;4093221;28;20392;-85
2022/08/12 09:53:23;;;;;;;2.35;1.10;;;23.60;48.60;;;;;;4088602;28;20070;-84
2022/08/12 09:55:25;;;;;;;5.10;0.90;;;23.70;49.80;;;;;;4084171;28;20027;-83
2022/08/12 09:57:26;;;;;;;3.53;1.25;;;23.80;50.40;;;;;;4096176;28;20057;-86
2022/08/12 09:59:26;;;;;;;7.43;1.10;;;23.90;50.50;;;;;;4086766;28;20035;-83
2022/08/12 10:01:28;;;;;;;4.22;1.13;;;23.90;50.70;;;;;;4083837;28;20461;-85
2022/08/12 10:03:31;;;;;;;1.58;1.38;;;23.90;51.00;;;;;;4088343;28;20032;-84
2022/08/12 10:05:35;;;;;;;5.68;1.23;;;23.90;50.40;;;;;;4100358;28;20049;-88
2022/08/12 10:07:37;;;;;;;1.67;1.13;;;24.00;50.90;;;;;;4081353;28;20102;-84
2022/08/12 10:09:38;;;;;;;2.55;1.10;;;24.00;51.00;;;;;;4083868;28;20023;-86
2022/08/12 10:13:58;;;;;;;2.85;1.00;;;24.10;51.40;;;;;;4086315;28;20117;-86
2022/08/12 10:16:05;;;;;;;1.92;1.25;;;24.10;50.80;;;;;;4076907;29;20107;-87
2022/08/12 10:18:06;;;;;;;1.77;0.90;;;24.10;51.20;;;;;;4087099;28;20042;-84
2022/08/12 10:20:07;;;;;;;2.95;1.23;;;24.20;51.50;;;;;;4100399;28;20033;-83
2022/08/12 10:22:08;;;;;;;2.50;1.15;;;24.20;51.30;;;;;;4093222;28;20031;-85
2022/08/12 10:24:15;;;;;;;4.65;1.38;;;24.20;51.30;;;;;;4091893;28;20020;-86
2022/08/12 10:31:41;;;;;;;;;;;;;;;;;;;;;
2022/08/12 10:34:15;;;;;;;2.35;1.10;;;24.20;51.60;;;;;;4058828;28;20117;-87
2022/08/12 10:36:29;;;;;;;3.72;1.20;;;24.20;51.40;;;;;;4104471;28;20518;-84
2022/08/12 10:38:30;;;;;;;3.85;1.52;;;24.20;51.40;;;;;;4093658;28;20546;-85
2022/08/12 10:43:46;;;;;;;3.67;1.40;;;24.20;51.80;;;;;;4080260;28;20050;-84
2022/08/12 10:45:47;;;;;;;3.22;1.60;;;24.10;52.00;;;;;;4096130;28;20035;-87
2022/08/12 10:47:52;;;;;;;8.43;1.40;;;24.10;51.60;;;;;;4108887;28;20035;-86
2022/08/12 10:49:53;;;;;;;1.67;1.17;;;24.10;51.30;;;;;;4103957;28;20030;-84
2022/08/12 10:51:54;;;;;;;7.32;1.70;;;24.10;51.90;;;;;;4083342;28;20031;-84
2022/08/12 10:53:59;;;;;;;3.00;1.20;;;24.10;51.90;;;;;;4099457;28;20031;-84
2022/08/12 10:55:59;;;;;;;2.03;1.33;;;24.10;51.30;;;;;;4082650;28;20058;-84
2022/08/12 10:58:13;;;;;;;10.30;2.08;;;24.10;51.00;;;;;;4086599;28;20039;-84
2022/08/12 11:00:14;;;;;;;4.10;1.58;;;24.10;51.70;;;;;;4087207;28;20570;-87
2022/08/12 11:02:15;;;;;;;10.85;1.50;;;24.20;51.00;;;;;;4089396;28;20035;-83
2022/08/12 11:04:17;;;;;;;2.17;1.08;;;24.20;50.60;;;;;;4090428;28;20061;-83
2022/08/12 11:06:29;;;;;;;3.30;1.58;;;24.20;49.90;;;;;;4091866;28;20054;-84
2022/08/12 11:08:31;;;;;;;7.25;1.60;;;24.20;49.60;;;;;;4092074;28;20024;-84
2022/08/12 11:10:32;;;;;;;7.53;1.10;;;24.20;50.80;;;;;;4098523;28;20035;-84
2022/08/12 11:12:40;;;;;;;1.50;1.30;;;24.20;50.70;;;;;;4088537;28;20054;-85
2022/08/12 11:14:41;;;;;;;4.80;1.55;;;24.20;50.70;;;;;;4087044;28;20032;-85
2022/08/12 11:16:45;;;;;;;3.40;1.30;;;24.20;50.20;;;;;;4070891;29;20099;-85
2022/08/12 11:18:46;;;;;;;2.45;1.70;;;24.10;50.20;;;;;;4087343;28;20050;-86
2022/08/12 11:20:53;;;;;;;10.27;1.60;;;24.20;49.80;;;;;;4084464;28;20035;-83
2022/08/12 11:22:56;;;;;;;3.22;1.48;;;24.10;50.40;;;;;;4097310;28;20235;-83
2022/08/12 11:24:59;;;;;;;2.13;1.20;;;24.10;50.40;;;;;;4085105;28;20039;-85
2022/08/12 11:27:02;;;;;;;2.83;1.30;;;24.10;50.40;;;;;;4066086;29;20038;-84
2022/08/12 11:29:03;;;;;;;2.30;1.27;;;24.10;50.40;;;;;;4069861;29;20135;-82
2022/08/12 11:31:10;;;;;;;5.38;1.30;;;24.20;50.40;;;;;;4085042;28;20039;-86
2022/08/12 11:33:16;;;;;;;8.35;1.35;;;24.20;50.60;;;;;;4102029;28;20041;-86
2022/08/12 11:35:17;;;;;;;2.67;1.50;;;24.20;50.80;;;;;;4084803;28;20130;-87
2022/08/12 11:37:18;;;;;;;3.63;1.52;;;24.20;50.50;;;;;;4087370;28;20042;-84
2022/08/12 11:39:20;;;;;;;1.98;1.50;;;24.20;50.80;;;;;;4072340;29;20388;-84
2022/08/12 11:41:28;;;;;;;3.90;1.33;;;24.10;49.80;;;;;;4091610;28;20035;-86
2022/08/12 11:43:30;;;;;;;4.07;1.30;;;24.20;49.70;;;;;;4085805;28;20121;-83
2022/08/12 11:45:40;;;;;;;6.50;1.55;;;24.10;48.00;;;;;;4072432;28;20541;-87
2022/08/12 11:47:41;;;;;;;3.60;1.15;;;24.10;49.70;;;;;;4072298;28;20155;-85
2022/08/12 11:49:41;;;;;;;4.22;1.27;;;24.20;50.20;;;;;;4084772;28;20058;-85
2022/08/12 11:51:45;;;;;;;3.72;1.40;;;24.20;49.80;;;;;;4082692;28;20086;-87
2022/08/12 11:53:46;;;;;;;4.40;1.20;;;24.20;49.50;;;;;;4083874;28;20043;-84
2022/08/12 11:55:47;;;;;;;3.78;1.23;;;24.20;48.40;;;;;;4084872;28;20379;-86
2022/08/12 11:57:53;;;;;;;4.28;1.40;;;24.30;48.80;;;;;;4086247;28;20046;-85
2022/08/12 11:59:56;;;;;;;2.25;1.38;;;24.20;49.20;;;;;;4084869;28;20031;-86
2022/08/12 12:02:00;;;;;;;6.28;1.10;;;24.20;49.10;;;;;;4090172;28;20048;-86
2022/08/12 12:04:01;;;;;;;4.05;1.17;;;24.30;48.70;;;;;;4092808;28;20055;-85
2022/08/12 12:06:02;;;;;;;3.88;1.20;;;24.40;49.40;;;;;;4091314;28;20035;-85
2022/08/12 12:08:03;;;;;;;1.75;1.10;;;24.30;49.00;;;;;;4090623;28;20035;-84
2022/08/12 12:10:04;;;;;;;7.65;1.40;;;24.40;48.90;;;;;;4084021;28;20058;-84
2022/08/12 12:12:08;;;;;;;5.68;1.42;;;24.40;48.40;;;;;;4088476;28;20051;-89
2022/08/12 12:14:09;;;;;;;2.25;0.98;;;24.40;47.50;;;;;;4086204;29;20047;-86
2022/08/12 12:16:10;;;;;;;2.88;1.13;;;24.40;47.20;;;;;;4085608;28;20061;-86
2022/08/12 12:18:20;;;;;;;2.75;1.23;;;24.40;46.90;;;;;;4083326;28;20739;-85
2022/08/12 12:20:28;;;;;;;4.20;1.45;;;24.50;47.40;;;;;;4085724;28;20043;-86
2022/08/12 12:22:29;;;;;;;3.55;1.50;;;24.60;47.10;;;;;;4082412;28;20123;-87
2022/08/12 12:24:30;;;;;;;7.00;1.20;;;24.50;46.50;;;;;;4081863;28;20138;-86
2022/08/12 12:26:34;;;;;;;3.28;1.13;;;24.60;46.80;;;;;;4099542;28;20129;-87
2022/08/12 12:28:37;;;;;;;1.95;1.20;;;24.60;47.00;;;;;;4084719;28;20031;-84
2022/08/12 12:30:39;;;;;;;9.90;1.75;;;24.60;46.50;;;;;;4081041;28;20047;-85
2022/08/12 12:32:39;;;;;;;5.63;1.60;;;24.70;46.60;;;;;;4083844;28;20137;-87
2022/08/12 12:34:40;;;;;;;10.25;1.27;;;24.70;46.10;;;;;;4087465;28;20046;-83
2022/08/12 12:36:41;;;;;;;5.57;1.13;;;24.70;44.70;;;;;;4082422;28;20162;-85
2022/08/12 12:38:45;;;;;;;1.80;1.30;;;24.70;44.70;;;;;;4082492;28;20098;-85
2022/08/12 12:40:49;;;;;;;2.65;1.00;;;24.80;44.30;;;;;;4084320;28;20046;-86
2022/08/12 12:42:51;;;;;;;11.98;1.45;;;24.80;44.70;;;;;;4100997;28;20043;-85